createdAt,value
2018-05-11T00:01:22.930Z,16.87
2018-05-11T00:03:58.028Z,17.13
2018-05-11T00:06:34.132Z,14.82
2018-05-11T00:09:08.847Z,14.70
2018-05-11T00:11:43.689Z,15.60
2018-05-11T00:14:18.797Z,14.90
2018-05-11T00:16:54.449Z,16.40
2018-05-11T00:19:33.174Z,15.27
2018-05-11T00:22:09.139Z,15.57
2018-05-11T00:24:44.262Z,14.10
2018-05-11T00:27:19.076Z,15.00
2018-05-11T00:29:54.030Z,15.93
2018-05-11T00:32:29.089Z,15.43
2018-05-11T00:35:03.615Z,16.17
2018-05-11T00:37:38.254Z,15.60
2018-05-11T00:40:13.281Z,14.87
2018-05-11T00:42:48.972Z,16.00
2018-05-11T00:45:23.953Z,14.37
2018-05-11T00:47:58.536Z,15.85
2018-05-11T00:50:34.253Z,15.20
2018-05-11T00:53:08.897Z,15.83
2018-05-11T00:55:49.405Z,15.93
2018-05-11T00:58:24.097Z,17.57
2018-05-11T01:00:59.685Z,15.52
2018-05-11T01:03:34.520Z,17.03
2018-05-11T01:06:09.981Z,14.97
2018-05-11T01:08:45.236Z,16.67
2018-05-11T01:11:20.868Z,15.00
2018-05-11T01:13:55.411Z,14.40
2018-05-11T01:16:30.865Z,16.17
2018-05-11T01:19:05.357Z,15.77
2018-05-11T01:21:40.526Z,15.35
2018-05-11T01:24:15.433Z,16.73
2018-05-11T01:26:50.175Z,17.33
2018-05-11T01:29:25.045Z,15.67
2018-05-11T01:32:00.337Z,16.47
2018-05-11T01:34:36.061Z,17.27
2018-05-11T01:37:10.966Z,16.77
2018-05-11T01:39:46.265Z,16.30
2018-05-11T01:42:21.530Z,16.00
2018-05-11T01:44:57.108Z,16.87
2018-05-11T01:47:32.114Z,16.20
2018-05-11T01:50:07.070Z,14.80
2018-05-11T01:52:42.254Z,18.17
2018-05-11T01:55:17.402Z,16.27
2018-05-11T01:57:52.317Z,17.23
2018-05-11T02:00:27.449Z,16.40
2018-05-11T02:03:02.717Z,17.07
2018-05-11T02:05:38.176Z,16.57
2018-05-11T02:08:13.103Z,16.47
2018-05-11T02:10:48.290Z,18.17
2018-05-11T02:13:23.264Z,18.50
2018-05-11T02:15:57.877Z,16.43
2018-05-11T02:18:32.306Z,17.70
2018-05-11T02:21:07.362Z,17.00
2018-05-11T02:23:42.429Z,19.20
2018-05-11T02:26:17.246Z,18.17
2018-05-11T02:28:52.214Z,19.40
2018-05-11T02:31:27.071Z,17.37
2018-05-11T02:34:02.174Z,16.77
2018-05-11T02:36:37.470Z,19.27
2018-05-11T02:39:11.882Z,19.13
2018-05-11T02:41:46.284Z,20.15
2018-05-11T02:44:21.641Z,18.00
2018-05-11T02:46:57.153Z,17.73
2018-05-11T02:49:32.166Z,18.07
2018-05-11T02:52:07.181Z,18.87
2018-05-11T02:54:42.478Z,16.40
2018-05-11T02:57:17.688Z,15.03
2018-05-11T02:59:53.292Z,19.20
2018-05-11T03:02:28.311Z,18.98
2018-05-11T03:05:03.499Z,19.00
2018-05-11T03:07:39.249Z,19.00
2018-05-11T03:10:14.225Z,19.67
2018-05-11T03:12:49.486Z,18.50
2018-05-11T03:15:24.546Z,18.77
2018-05-11T03:17:59.713Z,18.53
2018-05-11T03:20:34.624Z,17.70
2018-05-11T03:23:10.220Z,16.97
2018-05-11T03:25:44.714Z,19.90
2018-05-11T03:28:20.326Z,18.50
2018-05-11T03:30:55.268Z,19.43
2018-05-11T03:33:30.417Z,18.53
2018-05-11T03:36:05.626Z,18.93
2018-05-11T03:38:40.502Z,20.20
2018-05-11T03:41:15.313Z,19.50
2018-05-11T03:43:50.401Z,18.60
2018-05-11T03:46:25.494Z,18.80
2018-05-11T03:49:00.349Z,18.20
2018-05-11T03:51:35.657Z,17.00
2018-05-11T03:54:10.617Z,18.50
2018-05-11T03:56:46.443Z,18.35
2018-05-11T03:59:22.272Z,17.80
2018-05-11T04:02:08.003Z,16.53
2018-05-11T04:04:53.781Z,20.03
2018-05-11T04:07:39.582Z,19.90
2018-05-11T04:10:14.299Z,19.33
2018-05-11T04:12:49.557Z,18.80
2018-05-11T04:15:24.466Z,20.50
2018-05-11T04:17:59.613Z,17.30
2018-05-11T04:20:34.712Z,20.03
2018-05-11T04:23:09.460Z,15.00
2018-05-11T04:25:44.506Z,14.57
2018-05-11T04:28:19.696Z,13.95
2018-05-11T04:30:54.548Z,11.00
2018-05-11T04:33:29.862Z,10.20
2018-05-11T04:36:05.337Z,11.10
2018-05-11T04:38:40.719Z,11.40
2018-05-11T04:41:15.946Z,9.70
2018-05-11T04:43:51.649Z,9.43
2018-05-11T04:46:26.944Z,9.73
2018-05-11T04:49:01.859Z,9.90
2018-05-11T04:51:36.915Z,9.03
2018-05-11T04:54:12.469Z,10.77
2018-05-11T04:56:46.897Z,9.80
2018-05-11T04:59:22.426Z,11.30
2018-05-11T05:01:57.405Z,8.70
2018-05-11T05:04:32.246Z,10.90
2018-05-11T05:07:07.518Z,10.63
2018-05-11T05:09:42.753Z,10.02
2018-05-11T05:12:17.751Z,10.43
2018-05-11T05:14:53.385Z,10.20
2018-05-11T05:17:28.446Z,8.70
2018-05-11T05:20:03.429Z,9.23
2018-05-11T05:22:38.735Z,10.23
2018-05-11T05:25:13.599Z,10.40
2018-05-11T05:27:48.954Z,10.27
2018-05-11T05:30:23.980Z,10.80
2018-05-11T05:32:59.141Z,11.27
2018-05-11T05:35:35.010Z,11.07
2018-05-11T05:38:09.803Z,9.93
2018-05-11T05:40:45.049Z,10.32
2018-05-11T05:43:20.301Z,10.07
2018-05-11T05:45:55.558Z,10.80
2018-05-11T05:48:30.589Z,10.70
2018-05-11T05:51:05.917Z,10.53
2018-05-11T05:53:40.862Z,11.00
2018-05-11T05:56:16.258Z,9.50
2018-05-11T05:58:50.912Z,11.07
2018-05-11T06:01:26.446Z,11.50
2018-05-11T06:04:01.605Z,10.37
2018-05-11T06:06:36.841Z,11.00
2018-05-11T06:09:11.661Z,11.17
2018-05-11T06:11:46.898Z,10.17
2018-05-11T06:14:21.816Z,10.50
2018-05-11T06:16:56.758Z,10.53
2018-05-11T06:19:32.041Z,10.83
2018-05-11T06:22:07.080Z,10.70
2018-05-11T06:24:42.697Z,11.23
2018-05-11T06:27:17.637Z,10.70
2018-05-11T06:29:52.646Z,10.10
2018-05-11T06:32:27.900Z,11.60
2018-05-11T06:35:16.302Z,11.40
2018-05-11T06:37:51.014Z,10.57
2018-05-11T06:40:26.422Z,10.33
2018-05-11T06:43:01.782Z,10.53
2018-05-11T06:45:37.042Z,11.07
2018-05-11T06:48:12.677Z,12.73
2018-05-11T06:50:48.015Z,9.85
2018-05-11T06:53:23.287Z,9.80
2018-05-11T06:55:58.166Z,11.60
2018-05-11T06:58:32.729Z,8.70
2018-05-11T07:01:07.159Z,9.33
2018-05-11T07:03:41.988Z,10.30
2018-05-11T07:06:16.941Z,10.50
2018-05-11T07:08:52.911Z,9.75
2018-05-11T07:11:28.078Z,10.30
2018-05-11T07:14:03.742Z,9.70
2018-05-11T07:16:38.996Z,10.15
2018-05-11T07:19:13.703Z,10.03
2018-05-11T07:21:49.072Z,9.10
2018-05-11T07:24:24.734Z,10.20
2018-05-11T07:26:59.229Z,9.50
2018-05-11T07:29:35.115Z,9.07
2018-05-11T07:32:09.843Z,9.97
2018-05-11T07:34:44.940Z,10.10
2018-05-11T07:37:20.147Z,9.17
2018-05-11T07:39:55.142Z,10.00
2018-05-11T07:42:29.799Z,10.80
2018-05-11T07:45:04.240Z,8.63
2018-05-11T07:47:39.847Z,8.95
2018-05-11T07:50:14.223Z,8.70
2018-05-11T07:52:49.839Z,9.13
2018-05-11T07:55:24.774Z,8.35
2018-05-11T07:57:59.794Z,9.10
2018-05-11T08:00:35.341Z,9.33
2018-05-11T08:03:10.035Z,9.10
2018-05-11T08:05:45.164Z,8.98
2018-05-11T08:08:20.076Z,8.70
2018-05-11T08:10:55.191Z,8.23
2018-05-11T08:13:30.103Z,8.40
2018-05-11T08:16:05.126Z,9.30
2018-05-11T08:18:40.198Z,9.50
2018-05-11T08:21:15.133Z,10.03
2018-05-11T08:23:50.180Z,9.73
2018-05-11T08:26:24.749Z,9.20
2018-05-11T08:28:59.727Z,10.43
2018-05-11T08:31:35.367Z,6.43
2018-05-11T08:34:09.776Z,6.73
2018-05-11T08:36:45.012Z,6.37
2018-05-11T08:39:19.987Z,7.80
2018-05-11T08:41:54.945Z,6.77
2018-05-11T08:44:29.812Z,7.53
2018-05-11T08:47:05.035Z,8.37
2018-05-11T08:49:40.155Z,7.23
2018-05-11T08:52:14.981Z,7.40
2018-05-11T08:54:50.239Z,6.60
2018-05-11T08:57:25.150Z,7.30
2018-05-11T09:00:00.262Z,7.00
2018-05-11T09:02:35.488Z,6.57
2018-05-11T09:05:10.644Z,7.07
2018-05-11T09:07:45.432Z,7.03
2018-05-11T09:10:20.411Z,6.60
2018-05-11T09:12:55.314Z,7.10
2018-05-11T09:15:30.893Z,6.55
2018-05-11T09:18:05.893Z,6.55
2018-05-11T09:20:41.268Z,6.28
2018-05-11T09:23:16.051Z,6.70
2018-05-11T09:25:51.081Z,6.80
2018-05-11T09:28:26.092Z,6.50
2018-05-11T09:31:01.088Z,6.17
2018-05-11T09:33:35.611Z,6.30
2018-05-11T09:36:10.426Z,6.67
2018-05-11T09:38:45.531Z,6.10
2018-05-11T09:41:21.120Z,6.00
2018-05-11T09:43:56.109Z,6.10
2018-05-11T09:46:31.610Z,6.30
2018-05-11T09:49:07.197Z,6.27
2018-05-11T09:51:42.351Z,6.07
2018-05-11T09:54:17.550Z,6.90
2018-05-11T09:56:53.365Z,6.78
2018-05-11T09:59:28.153Z,6.40
2018-05-11T10:02:03.096Z,6.40
2018-05-11T10:04:38.448Z,6.30
2018-05-11T10:07:13.646Z,6.63
2018-05-11T10:09:48.604Z,7.33
2018-05-11T10:12:23.193Z,7.07
2018-05-11T10:14:58.415Z,7.40
2018-05-11T10:17:33.608Z,7.00
2018-05-11T10:20:08.455Z,7.60
2018-05-11T10:22:43.491Z,6.97
2018-05-11T10:25:18.481Z,6.60
2018-05-11T10:27:53.690Z,7.30
2018-05-11T10:30:28.523Z,6.70
2018-05-11T10:33:03.419Z,7.50
2018-05-11T10:35:38.238Z,7.33
2018-05-11T10:38:13.865Z,7.50
2018-05-11T10:40:48.323Z,6.60
2018-05-11T10:43:23.335Z,7.20
2018-05-11T10:45:58.477Z,7.37
2018-05-11T10:48:33.354Z,7.20
2018-05-11T10:51:08.469Z,7.57
2018-05-11T10:53:43.650Z,8.27
2018-05-11T10:56:18.530Z,7.87
2018-05-11T10:58:53.753Z,8.70
2018-05-11T11:01:28.783Z,7.40
2018-05-11T11:04:04.303Z,7.87
2018-05-11T11:06:39.530Z,6.53
2018-05-11T11:09:15.095Z,7.97
2018-05-11T11:11:50.242Z,7.45
2018-05-11T11:14:24.835Z,7.03
2018-05-11T11:16:59.561Z,6.70
2018-05-11T11:19:34.332Z,7.50
2018-05-11T11:22:09.925Z,7.73
2018-05-11T11:24:44.614Z,7.30
2018-05-11T11:27:19.466Z,7.70
2018-05-11T11:29:54.755Z,8.20
2018-05-11T11:32:29.492Z,7.03
2018-05-11T11:35:04.205Z,8.10
2018-05-11T11:37:39.961Z,7.80
2018-05-11T11:40:14.765Z,6.90
2018-05-11T11:42:50.152Z,7.37
2018-05-11T11:45:25.513Z,7.03
2018-05-11T11:48:00.461Z,7.83
2018-05-11T11:50:35.795Z,8.03
2018-05-11T11:53:10.843Z,7.03
2018-05-11T11:55:46.384Z,7.03
2018-05-11T11:58:21.532Z,7.27
2018-05-11T12:00:56.611Z,7.10
2018-05-11T12:03:31.846Z,7.77
2018-05-11T12:06:06.973Z,7.60
2018-05-11T12:08:43.037Z,8.13
2018-05-11T12:11:17.721Z,8.07
2018-05-11T12:13:53.056Z,7.10
2018-05-11T12:16:27.599Z,8.00
2018-05-11T12:19:03.021Z,7.30
2018-05-11T12:21:37.904Z,6.97
2018-05-11T12:24:12.901Z,6.77
2018-05-11T12:26:47.924Z,7.43
2018-05-11T12:29:23.024Z,5.80
2018-05-11T12:31:57.954Z,6.93
2018-05-11T12:34:33.180Z,5.43
2018-05-11T12:37:08.115Z,6.90
2018-05-11T12:39:45.127Z,7.70
2018-05-11T12:42:20.501Z,7.93
2018-05-11T12:44:55.749Z,5.80
2018-05-11T12:47:31.083Z,8.83
2018-05-11T12:50:06.557Z,7.53
2018-05-11T12:52:41.723Z,6.90
2018-05-11T12:55:16.276Z,6.77
2018-05-11T12:57:51.145Z,6.80
2018-05-11T13:00:25.987Z,8.07
2018-05-11T13:03:01.153Z,8.20
2018-05-11T13:05:36.286Z,8.30
2018-05-11T13:08:11.103Z,8.70
2018-05-11T13:10:46.008Z,9.10
2018-05-11T13:13:21.552Z,7.13
2018-05-11T13:15:56.600Z,8.10
2018-05-11T13:18:31.722Z,9.10
2018-05-11T13:21:06.178Z,9.10
2018-05-11T13:23:41.901Z,8.97
2018-05-11T13:26:16.885Z,9.10
2018-05-11T13:28:51.590Z,9.73
2018-05-11T13:31:26.614Z,10.43
2018-05-11T13:34:01.606Z,10.10
2018-05-11T13:36:37.260Z,10.03
2018-05-11T13:39:12.126Z,10.70
2018-05-11T13:41:47.752Z,9.13
2018-05-11T13:44:22.756Z,9.10
2018-05-11T13:46:57.946Z,10.90
2018-05-11T13:49:33.061Z,9.90
2018-05-11T13:52:08.146Z,9.20
2018-05-11T13:54:43.146Z,9.53
2018-05-11T13:57:18.317Z,9.93
2018-05-11T13:59:53.917Z,9.60
2018-05-11T14:02:28.848Z,9.37
2018-05-11T14:05:03.969Z,7.90
2018-05-11T14:07:39.536Z,8.43
2018-05-11T14:10:14.680Z,7.20
2018-05-11T14:12:50.150Z,9.23
2018-05-11T14:15:24.381Z,8.73
2018-05-11T14:17:59.690Z,8.57
2018-05-11T14:20:34.246Z,8.30
2018-05-11T14:23:09.237Z,7.70
2018-05-11T14:25:44.088Z,9.30
2018-05-11T14:28:19.197Z,9.90
2018-05-11T14:30:54.170Z,7.70
2018-05-11T14:33:29.150Z,6.53
2018-05-11T14:36:04.123Z,8.60
2018-05-11T14:38:38.448Z,8.40
2018-05-11T14:41:13.887Z,7.83
2018-05-11T14:43:49.213Z,8.13
2018-05-11T14:46:23.880Z,8.47
2018-05-11T14:48:59.089Z,7.93
2018-05-11T14:51:33.809Z,7.07
2018-05-11T14:54:08.874Z,8.23
2018-05-11T14:56:43.994Z,6.78
2018-05-11T14:59:18.943Z,8.30
2018-05-11T15:01:54.060Z,8.03
2018-05-11T15:04:29.089Z,9.10
2018-05-11T15:07:04.476Z,10.50
2018-05-11T15:09:39.476Z,9.60
2018-05-11T15:12:14.590Z,8.30
2018-05-11T15:14:50.368Z,9.03
2018-05-11T15:17:25.013Z,9.13
2018-05-11T15:20:00.290Z,10.17
2018-05-11T15:22:36.264Z,9.50
2018-05-11T15:25:10.730Z,8.27
2018-05-11T15:27:46.000Z,9.50
2018-05-11T15:30:21.978Z,8.27
2018-05-11T15:32:57.365Z,8.50
2018-05-11T15:35:33.022Z,8.43
2018-05-11T15:38:08.162Z,8.73
2018-05-11T15:40:44.116Z,8.83
2018-05-11T15:43:19.010Z,7.67
2018-05-11T15:45:53.664Z,8.23
2018-05-11T15:48:28.978Z,8.27
2018-05-11T15:51:03.601Z,8.93
2018-05-11T15:53:38.768Z,8.10
2018-05-11T15:56:14.154Z,8.30
2018-05-11T15:58:49.498Z,8.47
2018-05-11T16:01:24.689Z,8.93
2018-05-11T16:03:59.322Z,8.10
2018-05-11T16:06:35.928Z,8.95
2018-05-11T16:09:10.542Z,7.73
2018-05-11T16:11:46.216Z,9.73
2018-05-11T16:14:21.854Z,9.23
2018-05-11T16:16:56.958Z,8.20
2018-05-11T16:19:32.378Z,9.20
2018-05-11T16:22:07.593Z,8.70
2018-05-11T16:24:42.507Z,7.47
2018-05-11T16:27:17.192Z,9.70
2018-05-11T16:29:52.626Z,10.27
2018-05-11T16:32:27.896Z,10.53
2018-05-11T16:35:03.281Z,8.80
2018-05-11T16:37:38.596Z,8.17
2018-05-11T16:40:14.078Z,7.90
2018-05-11T16:42:49.062Z,7.80
2018-05-11T16:45:23.854Z,8.63
2018-05-11T16:47:59.054Z,8.10
2018-05-11T16:50:34.228Z,8.80
2018-05-11T16:53:09.220Z,8.70
2018-05-11T16:55:44.414Z,8.15
2018-05-11T16:58:19.977Z,9.00
2018-05-11T17:00:55.024Z,8.97
2018-05-11T17:03:30.178Z,8.00
2018-05-11T17:06:04.698Z,8.00
2018-05-11T17:08:40.387Z,8.02
2018-05-11T17:11:15.271Z,8.00
2018-05-11T17:13:50.453Z,8.25
2018-05-11T17:16:25.313Z,7.93
2018-05-11T17:19:00.384Z,8.27
2018-05-11T17:21:36.469Z,6.90
2018-05-11T17:24:11.417Z,8.23
2018-05-11T17:26:46.240Z,8.03
2018-05-11T17:29:21.533Z,7.00
2018-05-11T17:31:56.529Z,6.80
2018-05-11T17:34:31.930Z,7.23
2018-05-11T17:37:07.161Z,7.65
2018-05-11T17:39:42.422Z,6.55
2018-05-11T17:42:16.981Z,8.90
2018-05-11T17:44:52.271Z,8.20
2018-05-11T17:47:27.278Z,9.10
2018-05-11T17:50:02.274Z,8.10
2018-05-11T17:52:37.514Z,9.00
2018-05-11T17:55:12.746Z,6.70
2018-05-11T17:57:48.552Z,7.03
2018-05-11T18:00:24.506Z,8.17
2018-05-11T18:02:59.342Z,7.93
2018-05-11T18:05:34.272Z,7.50
2018-05-11T18:08:09.370Z,7.63
2018-05-11T18:10:44.705Z,6.97
2018-05-11T18:13:19.358Z,8.10
2018-05-11T18:15:54.664Z,6.60
2018-05-11T18:18:29.622Z,6.90
2018-05-11T18:21:04.707Z,7.20
2018-05-11T18:23:40.533Z,7.53
2018-05-11T18:26:15.062Z,7.00
2018-05-11T18:28:50.544Z,6.72
2018-05-11T18:31:25.391Z,7.10
2018-05-11T18:34:00.276Z,6.77
2018-05-11T18:36:36.658Z,7.00
2018-05-11T18:39:11.950Z,6.53
2018-05-11T18:41:46.858Z,6.45
2018-05-11T18:44:22.428Z,7.40
2018-05-11T18:46:56.695Z,7.53
2018-05-11T18:49:32.438Z,6.20
2018-05-11T18:52:07.329Z,6.50
2018-05-11T18:54:42.663Z,7.82
2018-05-11T18:57:17.417Z,6.70
2018-05-11T18:59:52.610Z,6.62
2018-05-11T19:02:27.514Z,6.97
2018-05-11T19:05:02.351Z,6.03
2018-05-11T19:07:37.837Z,7.23
2018-05-11T19:10:12.761Z,6.60
2018-05-11T19:12:47.972Z,5.30
2018-05-11T19:15:23.502Z,8.00
2018-05-11T19:17:58.427Z,6.93
2018-05-11T19:20:33.535Z,7.83
2018-05-11T19:23:08.404Z,7.30
2018-05-11T19:25:43.584Z,6.40
2018-05-11T19:28:18.459Z,7.73
2018-05-11T19:30:53.665Z,6.77
2018-05-11T19:33:28.733Z,7.03
2018-05-11T19:36:04.054Z,8.43
2018-05-11T19:38:38.993Z,7.90
2018-05-11T19:41:13.704Z,8.03
2018-05-11T19:43:49.091Z,7.57
2018-05-11T19:46:24.150Z,8.10
2018-05-11T19:48:59.536Z,8.27
2018-05-11T19:51:34.510Z,8.20
2018-05-11T19:54:09.518Z,8.70
2018-05-11T19:56:44.796Z,8.77
2018-05-11T19:59:19.182Z,7.70
2018-05-11T20:01:54.466Z,9.07
2018-05-11T20:04:29.642Z,9.30
2018-05-11T20:07:04.824Z,8.17
2018-05-11T20:09:39.848Z,8.90
2018-05-11T20:12:14.832Z,9.27
2018-05-11T20:14:50.217Z,7.90
2018-05-11T20:17:24.507Z,8.93
2018-05-11T20:19:59.730Z,8.80
2018-05-11T20:22:34.617Z,8.70
2018-05-11T20:25:09.132Z,9.53
2018-05-11T20:27:44.056Z,8.57
2018-05-11T20:30:18.611Z,9.20
2018-05-11T20:32:53.831Z,9.75
2018-05-11T20:35:29.151Z,9.87
2018-05-11T20:38:04.305Z,9.23
2018-05-11T20:40:39.165Z,9.10
2018-05-11T20:43:14.038Z,10.57
2018-05-11T20:45:49.005Z,10.27
2018-05-11T20:48:24.102Z,10.13
2018-05-11T20:50:59.195Z,10.20
2018-05-11T20:53:34.385Z,9.30
2018-05-11T20:56:08.706Z,10.30
2018-05-11T20:58:42.954Z,9.80
2018-05-11T21:01:18.046Z,9.97
2018-05-11T21:03:53.327Z,10.73
2018-05-11T21:06:27.982Z,9.80
2018-05-11T21:09:02.682Z,10.20
2018-05-11T21:11:38.596Z,10.17
2018-05-11T21:14:13.182Z,9.70
2018-05-11T21:16:47.822Z,9.80
2018-05-11T21:19:22.909Z,10.00
2018-05-11T21:21:58.164Z,10.30
2018-05-11T21:24:32.800Z,9.10
2018-05-11T21:27:07.896Z,8.00
2018-05-11T21:29:43.715Z,8.63
2018-05-11T21:32:18.850Z,8.70
2018-05-11T21:34:54.194Z,9.10
2018-05-11T21:37:28.980Z,8.03
2018-05-11T21:40:03.675Z,8.97
2018-05-11T21:42:38.205Z,8.03
2018-05-11T21:45:12.874Z,8.00
2018-05-11T21:47:47.982Z,9.77
2018-05-11T21:50:22.723Z,9.13
2018-05-11T21:52:58.236Z,10.40
2018-05-11T21:55:32.930Z,10.60
2018-05-11T21:58:08.154Z,11.43
2018-05-11T22:00:44.694Z,10.85
2018-05-11T22:03:19.741Z,11.68
2018-05-11T22:05:54.031Z,12.27
2018-05-11T22:08:29.231Z,11.60
2018-05-11T22:11:03.858Z,12.50
2018-05-11T22:13:38.581Z,11.33
2018-05-11T22:16:13.717Z,12.30
2018-05-11T22:18:49.202Z,12.37
2018-05-11T22:21:24.426Z,12.40
2018-05-11T22:24:00.129Z,12.47
2018-05-11T22:26:35.105Z,13.50
2018-05-11T22:29:10.853Z,12.90
2018-05-11T22:31:46.386Z,13.90
2018-05-11T22:34:20.879Z,14.00
2018-05-11T22:36:55.982Z,12.83
2018-05-11T22:39:31.912Z,14.93
2018-05-11T22:42:08.087Z,13.37
2018-05-11T22:44:43.316Z,14.70
2018-05-11T22:47:18.257Z,14.67
2018-05-11T22:49:54.185Z,15.50
2018-05-11T22:52:29.246Z,14.30
2018-05-11T22:55:04.409Z,14.07
2018-05-11T22:57:39.506Z,14.40
2018-05-11T23:00:15.090Z,15.37
2018-05-11T23:02:50.283Z,15.70
2018-05-11T23:05:25.220Z,15.93
2018-05-11T23:08:00.904Z,15.30
2018-05-11T23:10:36.936Z,16.70
2018-05-11T23:13:12.289Z,15.93
2018-05-11T23:15:47.411Z,16.10
2018-05-11T23:18:22.537Z,17.23
2018-05-11T23:20:57.468Z,16.90
2018-05-11T23:23:32.540Z,17.00
2018-05-11T23:26:07.582Z,17.67
2018-05-11T23:28:42.915Z,16.83
2018-05-11T23:31:18.265Z,16.90
2018-05-11T23:33:53.374Z,17.77
2018-05-11T23:36:28.516Z,17.80
2018-05-11T23:39:03.009Z,17.33
2018-05-11T23:41:37.564Z,17.30
2018-05-11T23:44:12.414Z,18.10
2018-05-11T23:46:47.551Z,17.67
2018-05-11T23:49:23.086Z,18.30
2018-05-11T23:51:58.400Z,17.30
2018-05-11T23:54:33.683Z,17.43
2018-05-11T23:57:09.185Z,19.00
2018-05-11T23:59:44.593Z,18.80
